sensor_id;sensor_type;location;lat;lon;timestamp;P1;durP1;ratioP1;P2;durP2;ratioP2
56830;SDS011;42713;42.676;23.352;2022-11-15T00:00:52;123.03;;;63.75;;
56830;SDS011;42713;42.676;23.352;2022-11-15T00:03:18;118.63;;;59.28;;
56830;SDS011;42713;42.676;23.352;2022-11-15T00:05:45;120.70;;;57.83;;
56830;SDS011;42713;42.676;23.352;2022-11-15T00:08:11;131.68;;;61.58;;
56830;SDS011;42713;42.676;23.352;2022-11-15T00:10:37;140.35;;;64.57;;
56830;SDS011;42713;42.676;23.352;2022-11-15T00:13:06;121.20;;;61.00;;
56830;SDS011;42713;42.676;23.352;2022-11-15T00:15:34;129.27;;;61.10;;
56830;SDS011;42713;42.676;23.352;2022-11-15T00:18:04;127.72;;;64.25;;
56830;SDS011;42713;42.676;23.352;2022-11-15T00:20:33;101.03;;;49.58;;
56830;SDS011;42713;42.676;23.352;2022-11-15T00:22:58;94.20;;;47.08;;
56830;SDS011;42713;42.676;23.352;2022-11-15T00:25:24;93.47;;;45.75;;
56830;SDS011;42713;42.676;23.352;2022-11-15T00:27:49;96.45;;;48.90;;
56830;SDS011;42713;42.676;23.352;2022-11-15T00:30:19;106.88;;;46.90;;
56830;SDS011;42713;42.676;23.352;2022-11-15T00:32:45;96.28;;;47.83;;
56830;SDS011;42713;42.676;23.352;2022-11-15T00:35:10;98.28;;;50.90;;
56830;SDS011;42713;42.676;23.352;2022-11-15T00:37:37;114.70;;;52.47;;
56830;SDS011;42713;42.676;23.352;2022-11-15T00:40:02;96.90;;;44.95;;
56830;SDS011;42713;42.676;23.352;2022-11-15T00:42:28;101.47;;;51.10;;
56830;SDS011;42713;42.676;23.352;2022-11-15T00:44:54;98.65;;;47.38;;
56830;SDS011;42713;42.676;23.352;2022-11-15T00:47:19;87.25;;;44.85;;
56830;SDS011;42713;42.676;23.352;2022-11-15T00:49:44;90.78;;;45.33;;
56830;SDS011;42713;42.676;23.352;2022-11-15T00:52:10;88.53;;;44.22;;
56830;SDS011;42713;42.676;23.352;2022-11-15T00:54:35;91.10;;;46.20;;
56830;SDS011;42713;42.676;23.352;2022-11-15T00:57:01;89.63;;;44.30;;
56830;SDS011;42713;42.676;23.352;2022-11-15T00:59:26;100.60;;;45.13;;
56830;SDS011;42713;42.676;23.352;2022-11-15T01:01:54;88.05;;;42.65;;
56830;SDS011;42713;42.676;23.352;2022-11-15T01:04:20;96.25;;;45.08;;
56830;SDS011;42713;42.676;23.352;2022-11-15T01:06:45;89.57;;;45.15;;
56830;SDS011;42713;42.676;23.352;2022-11-15T01:09:11;97.82;;;45.42;;
56830;SDS011;42713;42.676;23.352;2022-11-15T01:11:36;92.65;;;44.35;;
56830;SDS011;42713;42.676;23.352;2022-11-15T01:14:02;94.80;;;44.35;;
56830;SDS011;42713;42.676;23.352;2022-11-15T01:16:27;99.82;;;45.20;;
56830;SDS011;42713;42.676;23.352;2022-11-15T01:18:53;101.00;;;46.65;;
56830;SDS011;42713;42.676;23.352;2022-11-15T01:21:18;97.63;;;47.22;;
56830;SDS011;42713;42.676;23.352;2022-11-15T01:23:44;98.75;;;47.45;;
56830;SDS011;42713;42.676;23.352;2022-11-15T01:26:11;96.57;;;49.47;;
56830;SDS011;42713;42.676;23.352;2022-11-15T01:28:39;112.82;;;51.10;;
56830;SDS011;42713;42.676;23.352;2022-11-15T01:31:09;99.47;;;47.72;;
56830;SDS011;42713;42.676;23.352;2022-11-15T01:33:38;111.13;;;53.85;;
56830;SDS011;42713;42.676;23.352;2022-11-15T01:36:04;125.13;;;58.65;;
56830;SDS011;42713;42.676;23.352;2022-11-15T01:38:35;118.85;;;56.20;;
56830;SDS011;42713;42.676;23.352;2022-11-15T01:41:35;111.25;;;51.75;;
56830;SDS011;42713;42.676;23.352;2022-11-15T01:43:56;91.53;;;47.08;;
56830;SDS011;42713;42.676;23.352;2022-11-15T01:46:42;89.63;;;44.60;;
56830;SDS011;42713;42.676;23.352;2022-11-15T01:49:16;91.55;;;44.78;;
56830;SDS011;42713;42.676;23.352;2022-11-15T01:51:44;105.28;;;47.65;;
56830;SDS011;42713;42.676;23.352;2022-11-15T01:54:11;99.10;;;47.75;;
56830;SDS011;42713;42.676;23.352;2022-11-15T01:56:43;113.18;;;47.72;;
56830;SDS011;42713;42.676;23.352;2022-11-15T01:59:12;96.65;;;47.25;;
56830;SDS011;42713;42.676;23.352;2022-11-15T02:01:38;95.72;;;45.45;;
56830;SDS011;42713;42.676;23.352;2022-11-15T02:04:10;92.70;;;45.38;;
56830;SDS011;42713;42.676;23.352;2022-11-15T02:06:39;87.45;;;43.55;;
56830;SDS011;42713;42.676;23.352;2022-11-15T02:09:06;87.68;;;45.60;;
56830;SDS011;42713;42.676;23.352;2022-11-15T02:11:32;92.60;;;44.67;;
56830;SDS011;42713;42.676;23.352;2022-11-15T02:13:59;99.85;;;44.78;;
56830;SDS011;42713;42.676;23.352;2022-11-15T02:24:24;96.20;;;44.33;;
56830;SDS011;42713;42.676;23.352;2022-11-15T02:27:37;93.88;;;43.40;;
56830;SDS011;42713;42.676;23.352;2022-11-15T02:32:52;84.78;;;42.30;;
56830;SDS011;42713;42.676;23.352;2022-11-15T02:35:35;79.45;;;40.75;;
56830;SDS011;42713;42.676;23.352;2022-11-15T02:38:17;80.13;;;40.83;;
56830;SDS011;42713;42.676;23.352;2022-11-15T02:40:53;86.05;;;41.30;;
56830;SDS011;42713;42.676;23.352;2022-11-15T02:49:38;82.72;;;42.25;;
56830;SDS011;42713;42.676;23.352;2022-11-15T02:52:13;85.13;;;40.75;;
56830;SDS011;42713;42.676;23.352;2022-11-15T02:54:40;83.25;;;40.35;;
56830;SDS011;42713;42.676;23.352;2022-11-15T02:57:06;79.43;;;40.33;;
56830;SDS011;42713;42.676;23.352;2022-11-15T02:59:47;76.32;;;40.65;;
56830;SDS011;42713;42.676;23.352;2022-11-15T03:02:23;78.53;;;41.10;;
56830;SDS011;42713;42.676;23.352;2022-11-15T03:10:09;87.82;;;41.78;;
56830;SDS011;42713;42.676;23.352;2022-11-15T03:15:20;83.00;;;41.45;;
56830;SDS011;42713;42.676;23.352;2022-11-15T03:17:55;90.20;;;43.05;;
56830;SDS011;42713;42.676;23.352;2022-11-15T03:20:29;84.25;;;41.92;;
56830;SDS011;42713;42.676;23.352;2022-11-15T03:23:06;88.68;;;42.20;;
56830;SDS011;42713;42.676;23.352;2022-11-15T03:25:46;88.28;;;42.92;;
56830;SDS011;42713;42.676;23.352;2022-11-15T03:28:16;87.40;;;42.50;;
56830;SDS011;42713;42.676;23.352;2022-11-15T03:30:54;86.03;;;42.17;;
56830;SDS011;42713;42.676;23.352;2022-11-15T03:33:21;89.25;;;42.70;;
56830;SDS011;42713;42.676;23.352;2022-11-15T03:35:47;80.53;;;41.60;;
56830;SDS011;42713;42.676;23.352;2022-11-15T03:38:24;82.68;;;42.30;;
56830;SDS011;42713;42.676;23.352;2022-11-15T03:41:05;87.10;;;42.58;;
56830;SDS011;42713;42.676;23.352;2022-11-15T03:46:31;86.18;;;42.78;;
56830;SDS011;42713;42.676;23.352;2022-11-15T03:49:07;91.95;;;44.08;;
56830;SDS011;42713;42.676;23.352;2022-11-15T03:51:37;93.63;;;44.45;;
56830;SDS011;42713;42.676;23.352;2022-11-15T03:54:07;101.13;;;49.45;;
56830;SDS011;42713;42.676;23.352;2022-11-15T03:56:34;117.80;;;54.78;;
56830;SDS011;42713;42.676;23.352;2022-11-15T03:58:59;121.60;;;57.00;;
56830;SDS011;42713;42.676;23.352;2022-11-15T04:01:25;129.45;;;60.83;;
56830;SDS011;42713;42.676;23.352;2022-11-15T04:03:50;132.40;;;60.80;;
56830;SDS011;42713;42.676;23.352;2022-11-15T04:06:16;131.30;;;59.92;;
56830;SDS011;42713;42.676;23.352;2022-11-15T04:08:41;117.28;;;56.85;;
56830;SDS011;42713;42.676;23.352;2022-11-15T04:11:07;109.90;;;54.63;;
56830;SDS011;42713;42.676;23.352;2022-11-15T04:13:32;110.53;;;52.67;;
56830;SDS011;42713;42.676;23.352;2022-11-15T04:15:58;106.53;;;52.20;;
56830;SDS011;42713;42.676;23.352;2022-11-15T04:18:23;103.35;;;50.38;;
56830;SDS011;42713;42.676;23.352;2022-11-15T04:20:49;96.10;;;49.47;;
56830;SDS011;42713;42.676;23.352;2022-11-15T04:23:33;87.32;;;48.05;;
56830;SDS011;42713;42.676;23.352;2022-11-15T04:26:20;91.90;;;46.95;;
56830;SDS011;42713;42.676;23.352;2022-11-15T04:31:31;89.78;;;42.22;;
56830;SDS011;42713;42.676;23.352;2022-11-15T04:33:57;81.97;;;42.15;;
56830;SDS011;42713;42.676;23.352;2022-11-15T04:36:22;84.18;;;42.80;;
56830;SDS011;42713;42.676;23.352;2022-11-15T04:39:06;86.28;;;42.05;;
56830;SDS011;42713;42.676;23.352;2022-11-15T04:41:32;82.68;;;43.95;;
56830;SDS011;42713;42.676;23.352;2022-11-15T04:43:57;74.50;;;40.60;;
56830;SDS011;42713;42.676;23.352;2022-11-15T04:46:23;77.07;;;39.50;;
56830;SDS011;42713;42.676;23.352;2022-11-15T04:48:50;79.38;;;41.28;;
56830;SDS011;42713;42.676;23.352;2022-11-15T04:51:16;71.53;;;37.17;;
56830;SDS011;42713;42.676;23.352;2022-11-15T04:53:41;62.28;;;34.83;;
56830;SDS011;42713;42.676;23.352;2022-11-15T04:56:07;56.38;;;33.17;;
56830;SDS011;42713;42.676;23.352;2022-11-15T04:58:32;60.40;;;33.88;;
56830;SDS011;42713;42.676;23.352;2022-11-15T05:01:05;53.90;;;31.00;;
56830;SDS011;42713;42.676;23.352;2022-11-15T05:03:43;54.90;;;30.73;;
56830;SDS011;42713;42.676;23.352;2022-11-15T05:06:28;55.38;;;29.85;;
56830;SDS011;42713;42.676;23.352;2022-11-15T05:08:54;54.38;;;30.45;;
56830;SDS011;42713;42.676;23.352;2022-11-15T05:11:21;56.28;;;31.40;;
56830;SDS011;42713;42.676;23.352;2022-11-15T05:13:47;62.20;;;34.28;;
56830;SDS011;42713;42.676;23.352;2022-11-15T05:16:14;60.63;;;31.85;;
56830;SDS011;42713;42.676;23.352;2022-11-15T05:18:39;63.78;;;34.70;;
56830;SDS011;42713;42.676;23.352;2022-11-15T05:21:12;57.58;;;31.10;;
56830;SDS011;42713;42.676;23.352;2022-11-15T05:23:39;53.72;;;26.10;;
56830;SDS011;42713;42.676;23.352;2022-11-15T05:26:06;53.75;;;26.50;;
56830;SDS011;42713;42.676;23.352;2022-11-15T05:28:32;48.05;;;23.63;;
56830;SDS011;42713;42.676;23.352;2022-11-15T05:31:09;50.42;;;22.08;;
56830;SDS011;42713;42.676;23.352;2022-11-15T05:33:37;45.00;;;22.38;;
56830;SDS011;42713;42.676;23.352;2022-11-15T05:38:48;42.70;;;20.67;;
56830;SDS011;42713;42.676;23.352;2022-11-15T05:41:14;39.30;;;18.27;;
56830;SDS011;42713;42.676;23.352;2022-11-15T05:43:44;42.05;;;19.33;;
56830;SDS011;42713;42.676;23.352;2022-11-15T05:46:10;35.40;;;16.52;;
56830;SDS011;42713;42.676;23.352;2022-11-15T05:48:37;38.15;;;19.35;;
56830;SDS011;42713;42.676;23.352;2022-11-15T05:51:08;43.63;;;20.38;;
56830;SDS011;42713;42.676;23.352;2022-11-15T05:53:34;39.35;;;18.00;;
56830;SDS011;42713;42.676;23.352;2022-11-15T05:56:02;40.88;;;18.75;;
56830;SDS011;42713;42.676;23.352;2022-11-15T05:58:30;42.80;;;20.00;;
56830;SDS011;42713;42.676;23.352;2022-11-15T06:00:57;44.53;;;18.40;;
56830;SDS011;42713;42.676;23.352;2022-11-15T06:03:22;38.10;;;17.08;;
56830;SDS011;42713;42.676;23.352;2022-11-15T06:05:48;38.00;;;17.50;;
56830;SDS011;42713;42.676;23.352;2022-11-15T06:08:13;35.92;;;17.00;;
56830;SDS011;42713;42.676;23.352;2022-11-15T06:10:39;41.72;;;18.85;;
56830;SDS011;42713;42.676;23.352;2022-11-15T06:13:04;43.13;;;19.35;;
56830;SDS011;42713;42.676;23.352;2022-11-15T06:15:31;43.97;;;19.63;;
56830;SDS011;42713;42.676;23.352;2022-11-15T06:17:57;45.42;;;19.02;;
56830;SDS011;42713;42.676;23.352;2022-11-15T06:20:27;44.15;;;19.83;;
56830;SDS011;42713;42.676;23.352;2022-11-15T06:22:58;47.22;;;21.30;;
56830;SDS011;42713;42.676;23.352;2022-11-15T06:25:25;43.42;;;20.38;;
56830;SDS011;42713;42.676;23.352;2022-11-15T06:27:52;46.88;;;21.13;;
56830;SDS011;42713;42.676;23.352;2022-11-15T06:30:18;43.17;;;20.65;;
56830;SDS011;42713;42.676;23.352;2022-11-15T06:32:44;44.65;;;21.60;;
56830;SDS011;42713;42.676;23.352;2022-11-15T06:35:09;42.63;;;20.52;;
56830;SDS011;42713;42.676;23.352;2022-11-15T06:37:34;41.72;;;19.92;;
56830;SDS011;42713;42.676;23.352;2022-11-15T06:40:00;40.90;;;19.58;;
56830;SDS011;42713;42.676;23.352;2022-11-15T06:42:26;41.45;;;20.20;;
56830;SDS011;42713;42.676;23.352;2022-11-15T06:44:51;47.78;;;21.00;;
56830;SDS011;42713;42.676;23.352;2022-11-15T06:47:17;44.05;;;20.20;;
56830;SDS011;42713;42.676;23.352;2022-11-15T06:49:42;46.03;;;20.88;;
56830;SDS011;42713;42.676;23.352;2022-11-15T06:52:08;43.15;;;22.25;;
56830;SDS011;42713;42.676;23.352;2022-11-15T06:54:34;42.45;;;21.02;;
56830;SDS011;42713;42.676;23.352;2022-11-15T06:56:59;40.60;;;19.98;;
56830;SDS011;42713;42.676;23.352;2022-11-15T06:59:24;46.78;;;19.50;;
56830;SDS011;42713;42.676;23.352;2022-11-15T07:01:50;42.47;;;21.55;;
56830;SDS011;42713;42.676;23.352;2022-11-15T07:04:15;38.08;;;19.67;;
56830;SDS011;42713;42.676;23.352;2022-11-15T07:06:41;54.17;;;25.45;;
56830;SDS011;42713;42.676;23.352;2022-11-15T07:09:06;58.63;;;26.50;;
56830;SDS011;42713;42.676;23.352;2022-11-15T07:11:32;54.55;;;24.85;;
56830;SDS011;42713;42.676;23.352;2022-11-15T07:13:59;58.90;;;25.92;;
56830;SDS011;42713;42.676;23.352;2022-11-15T07:16:25;57.85;;;25.60;;
56830;SDS011;42713;42.676;23.352;2022-11-15T07:18:50;58.35;;;25.83;;
56830;SDS011;42713;42.676;23.352;2022-11-15T07:21:16;61.10;;;25.75;;
56830;SDS011;42713;42.676;23.352;2022-11-15T07:23:41;53.20;;;25.38;;
56830;SDS011;42713;42.676;23.352;2022-11-15T07:26:07;52.92;;;23.40;;
56830;SDS011;42713;42.676;23.352;2022-11-15T07:28:33;52.25;;;23.45;;
56830;SDS011;42713;42.676;23.352;2022-11-15T07:31:01;47.78;;;23.50;;
56830;SDS011;42713;42.676;23.352;2022-11-15T07:33:29;55.78;;;24.90;;
56830;SDS011;42713;42.676;23.352;2022-11-15T07:36:00;53.47;;;23.95;;
56830;SDS011;42713;42.676;23.352;2022-11-15T07:38:29;68.13;;;25.88;;
56830;SDS011;42713;42.676;23.352;2022-11-15T07:40:55;59.70;;;25.85;;
56830;SDS011;42713;42.676;23.352;2022-11-15T07:43:22;50.13;;;23.40;;
56830;SDS011;42713;42.676;23.352;2022-11-15T07:45:48;53.20;;;24.50;;
56830;SDS011;42713;42.676;23.352;2022-11-15T07:48:13;57.42;;;25.58;;
56830;SDS011;42713;42.676;23.352;2022-11-15T07:50:42;52.28;;;25.27;;
56830;SDS011;42713;42.676;23.352;2022-11-15T07:53:08;55.67;;;26.73;;
56830;SDS011;42713;42.676;23.352;2022-11-15T07:55:34;52.13;;;23.85;;
56830;SDS011;42713;42.676;23.352;2022-11-15T07:58:09;54.58;;;25.63;;
56830;SDS011;42713;42.676;23.352;2022-11-15T08:00:36;57.33;;;25.80;;
56830;SDS011;42713;42.676;23.352;2022-11-15T08:03:12;55.85;;;26.17;;
56830;SDS011;42713;42.676;23.352;2022-11-15T08:05:39;58.47;;;27.17;;
56830;SDS011;42713;42.676;23.352;2022-11-15T08:08:06;62.72;;;27.42;;
56830;SDS011;42713;42.676;23.352;2022-11-15T08:10:34;62.63;;;28.73;;
56830;SDS011;42713;42.676;23.352;2022-11-15T08:13:04;65.65;;;28.33;;
56830;SDS011;42713;42.676;23.352;2022-11-15T08:15:32;70.53;;;27.48;;
56830;SDS011;42713;42.676;23.352;2022-11-15T08:17:59;68.78;;;28.50;;
56830;SDS011;42713;42.676;23.352;2022-11-15T08:20:45;64.05;;;29.35;;
56830;SDS011;42713;42.676;23.352;2022-11-15T08:23:14;64.82;;;28.45;;
56830;SDS011;42713;42.676;23.352;2022-11-15T08:25:39;66.35;;;29.65;;
56830;SDS011;42713;42.676;23.352;2022-11-15T08:28:08;65.88;;;30.80;;
56830;SDS011;42713;42.676;23.352;2022-11-15T08:30:37;65.00;;;31.08;;
56830;SDS011;42713;42.676;23.352;2022-11-15T08:33:09;71.95;;;31.33;;
56830;SDS011;42713;42.676;23.352;2022-11-15T08:35:36;66.85;;;32.53;;
56830;SDS011;42713;42.676;23.352;2022-11-15T08:38:01;70.95;;;31.80;;
56830;SDS011;42713;42.676;23.352;2022-11-15T08:40:27;77.05;;;31.52;;
56830;SDS011;42713;42.676;23.352;2022-11-15T08:42:52;73.18;;;33.60;;
56830;SDS011;42713;42.676;23.352;2022-11-15T08:45:18;75.60;;;33.35;;
56830;SDS011;42713;42.676;23.352;2022-11-15T08:47:44;70.75;;;32.35;;
56830;SDS011;42713;42.676;23.352;2022-11-15T08:50:09;70.65;;;32.67;;
56830;SDS011;42713;42.676;23.352;2022-11-15T08:52:35;77.60;;;34.42;;
56830;SDS011;42713;42.676;23.352;2022-11-15T08:55:01;73.10;;;32.53;;
56830;SDS011;42713;42.676;23.352;2022-11-15T08:57:28;68.63;;;32.45;;
56830;SDS011;42713;42.676;23.352;2022-11-15T08:59:55;73.18;;;33.05;;
56830;SDS011;42713;42.676;23.352;2022-11-15T09:02:21;68.68;;;33.38;;
56830;SDS011;42713;42.676;23.352;2022-11-15T09:04:46;75.07;;;34.65;;
56830;SDS011;42713;42.676;23.352;2022-11-15T09:07:13;71.38;;;34.95;;
56830;SDS011;42713;42.676;23.352;2022-11-15T09:09:38;70.25;;;34.88;;
56830;SDS011;42713;42.676;23.352;2022-11-15T09:12:04;72.68;;;35.78;;
56830;SDS011;42713;42.676;23.352;2022-11-15T09:14:31;73.13;;;35.25;;
56830;SDS011;42713;42.676;23.352;2022-11-15T09:16:57;71.22;;;36.00;;
56830;SDS011;42713;42.676;23.352;2022-11-15T09:19:23;80.68;;;35.45;;
56830;SDS011;42713;42.676;23.352;2022-11-15T09:21:49;78.40;;;38.03;;
56830;SDS011;42713;42.676;23.352;2022-11-15T09:24:14;79.72;;;38.30;;
56830;SDS011;42713;42.676;23.352;2022-11-15T09:26:40;82.63;;;38.25;;
56830;SDS011;42713;42.676;23.352;2022-11-15T09:29:06;93.32;;;40.28;;
56830;SDS011;42713;42.676;23.352;2022-11-15T09:31:31;91.38;;;40.97;;
56830;SDS011;42713;42.676;23.352;2022-11-15T09:33:57;93.15;;;40.35;;
56830;SDS011;42713;42.676;23.352;2022-11-15T09:36:22;91.40;;;41.65;;
56830;SDS011;42713;42.676;23.352;2022-11-15T09:38:48;88.97;;;42.58;;
56830;SDS011;42713;42.676;23.352;2022-11-15T09:48:59;92.20;;;41.55;;
56830;SDS011;42713;42.676;23.352;2022-11-15T09:54:16;97.22;;;44.50;;
56830;SDS011;42713;42.676;23.352;2022-11-15T09:56:43;86.80;;;42.50;;
56830;SDS011;42713;42.676;23.352;2022-11-15T10:04:03;92.38;;;43.63;;
56830;SDS011;42713;42.676;23.352;2022-11-15T10:06:29;85.47;;;42.95;;
56830;SDS011;42713;42.676;23.352;2022-11-15T10:09:00;81.68;;;41.15;;
56830;SDS011;42713;42.676;23.352;2022-11-15T10:11:32;86.47;;;42.25;;
56830;SDS011;42713;42.676;23.352;2022-11-15T10:14:00;89.32;;;43.00;;
56830;SDS011;42713;42.676;23.352;2022-11-15T10:27:34;92.57;;;41.20;;
56830;SDS011;42713;42.676;23.352;2022-11-15T10:29:59;85.22;;;43.13;;
56830;SDS011;42713;42.676;23.352;2022-11-15T10:32:25;89.93;;;40.75;;
56830;SDS011;42713;42.676;23.352;2022-11-15T10:34:52;91.97;;;42.22;;
56830;SDS011;42713;42.676;23.352;2022-11-15T10:37:27;82.60;;;40.67;;
56830;SDS011;42713;42.676;23.352;2022-11-15T10:40:12;85.70;;;42.03;;
56830;SDS011;42713;42.676;23.352;2022-11-15T10:42:41;80.63;;;41.90;;
56830;SDS011;42713;42.676;23.352;2022-11-15T10:45:23;85.95;;;42.85;;
56830;SDS011;42713;42.676;23.352;2022-11-15T10:47:50;87.72;;;43.00;;
56830;SDS011;42713;42.676;23.352;2022-11-15T10:53:17;85.80;;;41.33;;
56830;SDS011;42713;42.676;23.352;2022-11-15T10:55:46;80.03;;;41.05;;
56830;SDS011;42713;42.676;23.352;2022-11-15T11:00:49;80.95;;;40.92;;
56830;SDS011;42713;42.676;23.352;2022-11-15T11:06:07;82.78;;;40.20;;
56830;SDS011;42713;42.676;23.352;2022-11-15T11:08:39;83.72;;;41.65;;
56830;SDS011;42713;42.676;23.352;2022-11-15T11:11:17;74.68;;;39.95;;
56830;SDS011;42713;42.676;23.352;2022-11-15T11:13:43;76.75;;;40.25;;
56830;SDS011;42713;42.676;23.352;2022-11-15T11:22:06;87.47;;;41.90;;
56830;SDS011;42713;42.676;23.352;2022-11-15T11:30:23;87.22;;;39.47;;
56830;SDS011;42713;42.676;23.352;2022-11-15T11:35:34;80.57;;;39.25;;
56830;SDS011;42713;42.676;23.352;2022-11-15T11:38:12;83.97;;;41.88;;
56830;SDS011;42713;42.676;23.352;2022-11-15T11:43:41;73.28;;;37.72;;
56830;SDS011;42713;42.676;23.352;2022-11-15T11:46:36;75.30;;;36.78;;
56830;SDS011;42713;42.676;23.352;2022-11-15T11:52:10;73.13;;;38.75;;
56830;SDS011;42713;42.676;23.352;2022-11-15T11:54:46;73.15;;;36.35;;
56830;SDS011;42713;42.676;23.352;2022-11-15T12:00:15;76.00;;;39.10;;
56830;SDS011;42713;42.676;23.352;2022-11-15T12:05:44;72.13;;;39.97;;
56830;SDS011;42713;42.676;23.352;2022-11-15T12:11:28;81.20;;;40.78;;
56830;SDS011;42713;42.676;23.352;2022-11-15T12:14:01;75.78;;;40.08;;
56830;SDS011;42713;42.676;23.352;2022-11-15T12:16:33;72.97;;;40.03;;
56830;SDS011;42713;42.676;23.352;2022-11-15T12:19:02;77.70;;;40.53;;
56830;SDS011;42713;42.676;23.352;2022-11-15T12:21:35;79.90;;;41.92;;
56830;SDS011;42713;42.676;23.352;2022-11-15T12:24:13;68.45;;;39.95;;
56830;SDS011;42713;42.676;23.352;2022-11-15T12:26:47;67.68;;;36.53;;
56830;SDS011;42713;42.676;23.352;2022-11-15T12:29:20;68.78;;;38.17;;
56830;SDS011;42713;42.676;23.352;2022-11-15T12:32:02;67.82;;;37.45;;
56830;SDS011;42713;42.676;23.352;2022-11-15T12:34:37;69.40;;;37.88;;
56830;SDS011;42713;42.676;23.352;2022-11-15T12:40:19;72.37;;;37.63;;
56830;SDS011;42713;42.676;23.352;2022-11-15T12:45:36;71.05;;;38.65;;
56830;SDS011;42713;42.676;23.352;2022-11-15T12:56:08;71.68;;;40.83;;
56830;SDS011;42713;42.676;23.352;2022-11-15T12:58:58;63.45;;;38.58;;
56830;SDS011;42713;42.676;23.352;2022-11-15T13:12:01;72.85;;;40.10;;
56830;SDS011;42713;42.676;23.352;2022-11-15T13:19:47;64.32;;;38.75;;
56830;SDS011;42713;42.676;23.352;2022-11-15T13:25:01;64.70;;;37.75;;
56830;SDS011;42713;42.676;23.352;2022-11-15T13:27:28;71.40;;;40.40;;
56830;SDS011;42713;42.676;23.352;2022-11-15T13:29:54;64.78;;;40.35;;
56830;SDS011;42713;42.676;23.352;2022-11-15T13:32:20;66.57;;;40.30;;
56830;SDS011;42713;42.676;23.352;2022-11-15T13:34:46;75.25;;;40.50;;
56830;SDS011;42713;42.676;23.352;2022-11-15T13:39:44;74.10;;;43.80;;
56830;SDS011;42713;42.676;23.352;2022-11-15T13:42:14;67.57;;;40.33;;
56830;SDS011;42713;42.676;23.352;2022-11-15T13:44:41;75.03;;;42.67;;
56830;SDS011;42713;42.676;23.352;2022-11-15T13:47:25;74.35;;;42.25;;
56830;SDS011;42713;42.676;23.352;2022-11-15T13:49:57;73.88;;;40.80;;
56830;SDS011;42713;42.676;23.352;2022-11-15T13:52:27;67.68;;;39.58;;
56830;SDS011;42713;42.676;23.352;2022-11-15T13:57:35;72.10;;;41.40;;
56830;SDS011;42713;42.676;23.352;2022-11-15T14:00:30;79.65;;;44.53;;
56830;SDS011;42713;42.676;23.352;2022-11-15T14:02:57;78.90;;;43.17;;
56830;SDS011;42713;42.676;23.352;2022-11-15T14:05:35;77.82;;;43.40;;
56830;SDS011;42713;42.676;23.352;2022-11-15T14:08:12;76.35;;;43.30;;
56830;SDS011;42713;42.676;23.352;2022-11-15T14:10:47;80.45;;;44.38;;
56830;SDS011;42713;42.676;23.352;2022-11-15T14:13:34;79.18;;;43.92;;
56830;SDS011;42713;42.676;23.352;2022-11-15T14:16:12;87.55;;;44.90;;
56830;SDS011;42713;42.676;23.352;2022-11-15T14:18:46;80.32;;;42.78;;
56830;SDS011;42713;42.676;23.352;2022-11-15T14:21:13;78.88;;;42.45;;
56830;SDS011;42713;42.676;23.352;2022-11-15T14:23:40;73.00;;;42.30;;
56830;SDS011;42713;42.676;23.352;2022-11-15T14:26:10;73.40;;;40.25;;
56830;SDS011;42713;42.676;23.352;2022-11-15T14:28:51;77.18;;;41.33;;
56830;SDS011;42713;42.676;23.352;2022-11-15T14:31:17;77.57;;;41.55;;
56830;SDS011;42713;42.676;23.352;2022-11-15T14:33:44;76.40;;;41.38;;
56830;SDS011;42713;42.676;23.352;2022-11-15T14:36:11;76.63;;;41.97;;
56830;SDS011;42713;42.676;23.352;2022-11-15T14:38:39;81.15;;;41.03;;
56830;SDS011;42713;42.676;23.352;2022-11-15T14:41:21;79.13;;;42.60;;
56830;SDS011;42713;42.676;23.352;2022-11-15T14:43:49;81.45;;;41.95;;
56830;SDS011;42713;42.676;23.352;2022-11-15T14:46:15;73.97;;;41.60;;
56830;SDS011;42713;42.676;23.352;2022-11-15T14:48:41;77.55;;;42.10;;
56830;SDS011;42713;42.676;23.352;2022-11-15T14:51:11;82.35;;;41.60;;
56830;SDS011;42713;42.676;23.352;2022-11-15T14:53:38;86.00;;;41.40;;
56830;SDS011;42713;42.676;23.352;2022-11-15T14:56:04;88.75;;;43.55;;
56830;SDS011;42713;42.676;23.352;2022-11-15T14:58:29;86.28;;;43.88;;
56830;SDS011;42713;42.676;23.352;2022-11-15T15:00:55;84.03;;;43.42;;
56830;SDS011;42713;42.676;23.352;2022-11-15T15:03:20;92.95;;;44.70;;
56830;SDS011;42713;42.676;23.352;2022-11-15T15:05:46;84.03;;;44.10;;
56830;SDS011;42713;42.676;23.352;2022-11-15T15:08:11;90.45;;;44.95;;
56830;SDS011;42713;42.676;23.352;2022-11-15T15:10:38;83.80;;;43.92;;
56830;SDS011;42713;42.676;23.352;2022-11-15T15:13:06;77.45;;;42.38;;
56830;SDS011;42713;42.676;23.352;2022-11-15T15:15:42;85.50;;;42.33;;
56830;SDS011;42713;42.676;23.352;2022-11-15T15:18:09;85.18;;;42.58;;
56830;SDS011;42713;42.676;23.352;2022-11-15T15:20:36;91.05;;;43.65;;
56830;SDS011;42713;42.676;23.352;2022-11-15T15:23:04;92.38;;;44.05;;
56830;SDS011;42713;42.676;23.352;2022-11-15T15:25:30;84.53;;;43.78;;
56830;SDS011;42713;42.676;23.352;2022-11-15T15:27:58;81.57;;;42.70;;
56830;SDS011;42713;42.676;23.352;2022-11-15T15:30:24;84.13;;;42.22;;
56830;SDS011;42713;42.676;23.352;2022-11-15T15:32:50;88.55;;;44.28;;
56830;SDS011;42713;42.676;23.352;2022-11-15T15:35:16;85.35;;;43.00;;
56830;SDS011;42713;42.676;23.352;2022-11-15T15:37:43;88.97;;;45.20;;
56830;SDS011;42713;42.676;23.352;2022-11-15T15:40:13;80.30;;;43.33;;
56830;SDS011;42713;42.676;23.352;2022-11-15T15:42:41;86.20;;;43.10;;
56830;SDS011;42713;42.676;23.352;2022-11-15T15:45:07;91.80;;;45.08;;
56830;SDS011;42713;42.676;23.352;2022-11-15T15:47:34;86.22;;;44.20;;
56830;SDS011;42713;42.676;23.352;2022-11-15T15:50:00;82.72;;;42.97;;
56830;SDS011;42713;42.676;23.352;2022-11-15T15:52:28;77.68;;;42.25;;
56830;SDS011;42713;42.676;23.352;2022-11-15T15:54:54;82.05;;;43.42;;
56830;SDS011;42713;42.676;23.352;2022-11-15T15:57:19;86.43;;;44.17;;
56830;SDS011;42713;42.676;23.352;2022-11-15T15:59:44;87.93;;;43.53;;
56830;SDS011;42713;42.676;23.352;2022-11-15T16:02:13;79.00;;;43.70;;
56830;SDS011;42713;42.676;23.352;2022-11-15T16:04:39;82.72;;;42.50;;
56830;SDS011;42713;42.676;23.352;2022-11-15T16:07:05;87.10;;;43.65;;
56830;SDS011;42713;42.676;23.352;2022-11-15T16:09:37;89.55;;;45.50;;
56830;SDS011;42713;42.676;23.352;2022-11-15T16:12:21;88.93;;;43.80;;
56830;SDS011;42713;42.676;23.352;2022-11-15T16:14:46;91.75;;;43.90;;
56830;SDS011;42713;42.676;23.352;2022-11-15T16:17:15;93.60;;;47.67;;
56830;SDS011;42713;42.676;23.352;2022-11-15T16:19:43;93.40;;;46.33;;
56830;SDS011;42713;42.676;23.352;2022-11-15T16:22:09;88.45;;;45.03;;
56830;SDS011;42713;42.676;23.352;2022-11-15T16:24:34;89.95;;;46.75;;
56830;SDS011;42713;42.676;23.352;2022-11-15T16:26:59;96.70;;;48.22;;
56830;SDS011;42713;42.676;23.352;2022-11-15T16:29:25;107.07;;;51.47;;
56830;SDS011;42713;42.676;23.352;2022-11-15T16:31:50;100.18;;;48.38;;
56830;SDS011;42713;42.676;23.352;2022-11-15T16:34:16;102.47;;;49.15;;